createdAt,value
2022-07-30T00:01:33.914Z,17.11
2022-07-30T00:04:02.312Z,17.07
2022-07-30T00:06:28.710Z,17.08
2022-07-30T00:08:54.915Z,17.07
2022-07-30T00:11:25.841Z,17.08
2022-07-30T00:13:53.855Z,17.06
2022-07-30T00:16:20.087Z,17.07
2022-07-30T00:18:46.354Z,17.06
2022-07-30T00:21:12.602Z,17.06
2022-07-30T00:24:01.779Z,17.07
2022-07-30T00:26:28.760Z,17.06
2022-07-30T00:28:54.968Z,17.08
2022-07-30T00:31:21.259Z,17.07
2022-07-30T00:33:48.624Z,17.04
2022-07-30T00:36:14.932Z,17.08
2022-07-30T00:38:41.099Z,17.06
2022-07-30T00:41:07.384Z,17.06
2022-07-30T00:43:33.850Z,17.08
2022-07-30T00:46:00.271Z,17.09
2022-07-30T00:48:26.863Z,17.07
2022-07-30T00:50:53.126Z,17.05
2022-07-30T00:53:19.349Z,17.03
2022-07-30T00:55:45.524Z,17.01
2022-07-30T00:58:11.933Z,17.04
2022-07-30T01:00:38.270Z,17.03
2022-07-30T01:03:04.543Z,17.03
2022-07-30T01:05:31.051Z,17.03
2022-07-30T01:07:57.233Z,17.05
2022-07-30T01:10:23.853Z,17.01
2022-07-30T01:12:52.221Z,17.03
2022-07-30T01:15:19.453Z,17.04
2022-07-30T01:17:49.882Z,17.03
2022-07-30T01:20:52.725Z,17.03
2022-07-30T01:23:44.329Z,17.03
2022-07-30T01:26:13.884Z,17.03
2022-07-30T01:28:42.761Z,17.03
2022-07-30T01:31:11.363Z,17.03
2022-07-30T01:33:44.358Z,17.01
2022-07-30T01:36:13.628Z,17.02
2022-07-30T01:38:43.212Z,17.01
2022-07-30T01:41:10.758Z,17.00
2022-07-30T01:43:38.868Z,16.99
2022-07-30T01:46:08.003Z,17.00
2022-07-30T01:48:39.975Z,17.03
2022-07-30T01:51:08.219Z,17.02
2022-07-30T01:53:38.090Z,17.00
2022-07-30T01:56:05.081Z,17.03
2022-07-30T01:58:39.404Z,17.02
2022-07-30T02:01:20.151Z,16.99
2022-07-30T02:03:47.173Z,17.00
2022-07-30T02:06:20.386Z,16.99
2022-07-30T02:09:10.631Z,17.01
2022-07-30T02:12:05.121Z,17.01
2022-07-30T02:14:48.744Z,17.00
2022-07-30T02:17:21.769Z,17.02
2022-07-30T02:19:58.380Z,16.96
2022-07-30T02:22:28.201Z,16.98
2022-07-30T02:25:01.033Z,16.96
2022-07-30T02:27:32.993Z,16.95
2022-07-30T02:30:03.034Z,16.99
2022-07-30T02:32:34.532Z,16.95
2022-07-30T02:35:09.701Z,16.98
2022-07-30T02:37:42.872Z,16.94
2022-07-30T02:40:14.917Z,16.92
2022-07-30T02:42:44.729Z,16.92
2022-07-30T02:45:17.163Z,16.90
2022-07-30T02:47:46.402Z,16.87
2022-07-30T02:50:15.726Z,16.89
2022-07-30T02:52:44.186Z,16.85
2022-07-30T02:55:12.708Z,16.86
2022-07-30T02:57:43.474Z,16.85
2022-07-30T03:00:11.624Z,16.86
2022-07-30T03:02:39.407Z,16.85
2022-07-30T03:05:08.107Z,16.84
2022-07-30T03:07:36.013Z,16.82
2022-07-30T03:10:03.406Z,16.81
2022-07-30T03:12:32.179Z,16.81
2022-07-30T03:14:58.548Z,16.85
2022-07-30T03:17:27.765Z,16.82
2022-07-30T03:19:55.547Z,16.80
2022-07-30T03:22:28.859Z,16.81
2022-07-30T03:24:58.540Z,16.76
2022-07-30T03:27:25.300Z,16.76
2022-07-30T03:29:54.831Z,16.78
2022-07-30T03:32:26.023Z,16.77
2022-07-30T03:34:53.871Z,16.74
2022-07-30T03:37:20.796Z,16.75
2022-07-30T03:39:47.996Z,16.74
2022-07-30T03:42:15.919Z,16.76
2022-07-30T03:44:45.113Z,16.75
2022-07-30T03:47:14.863Z,16.75
2022-07-30T03:49:46.125Z,16.73
2022-07-30T03:52:13.181Z,16.72
2022-07-30T03:54:40.285Z,16.72
2022-07-30T03:57:25.494Z,16.70
2022-07-30T03:59:52.152Z,16.67
2022-07-30T04:02:20.319Z,16.67
2022-07-30T04:05:18.107Z,16.71
2022-07-30T04:07:45.904Z,16.69
2022-07-30T04:10:16.239Z,16.67
2022-07-30T04:12:57.488Z,16.70
2022-07-30T04:16:38.198Z,16.67
2022-07-30T04:18:12.885Z,16.63
2022-07-30T04:20:41.156Z,16.63
2022-07-30T04:23:08.974Z,16.63
2022-07-30T04:25:35.537Z,16.62
2022-07-30T04:28:04.369Z,16.62
2022-07-30T04:30:35.295Z,16.62
2022-07-30T04:33:05.003Z,16.62
2022-07-30T04:35:50.018Z,16.61
2022-07-30T04:38:37.624Z,16.62
2022-07-30T04:41:04.173Z,16.61
2022-07-30T04:43:51.329Z,16.62
2022-07-30T04:46:18.303Z,16.59
2022-07-30T04:48:48.120Z,16.59
2022-07-30T04:51:23.480Z,16.61
2022-07-30T04:53:51.756Z,16.58
2022-07-30T04:56:20.872Z,16.59
2022-07-30T04:58:47.647Z,16.63
2022-07-30T05:01:22.543Z,16.58
2022-07-30T05:03:51.838Z,16.59
2022-07-30T05:06:19.826Z,16.58
2022-07-30T05:08:47.349Z,16.55
2022-07-30T05:11:14.765Z,16.55
2022-07-30T05:13:43.134Z,16.57
2022-07-30T05:16:14.301Z,16.56
2022-07-30T05:18:40.744Z,16.59
2022-07-30T05:21:07.915Z,16.55
2022-07-30T05:23:36.801Z,16.59
2022-07-30T05:26:20.563Z,16.56
2022-07-30T05:28:53.949Z,16.56
2022-07-30T05:31:25.857Z,16.57
2022-07-30T05:34:02.797Z,16.55
2022-07-30T05:36:36.520Z,16.56
2022-07-30T05:39:03.401Z,16.54
2022-07-30T05:41:49.457Z,16.57
2022-07-30T05:44:24.054Z,16.58
2022-07-30T05:46:51.502Z,16.57
2022-07-30T05:49:17.965Z,16.56
2022-07-30T05:51:44.479Z,16.55
2022-07-30T05:54:11.341Z,16.51
2022-07-30T05:56:49.002Z,16.54
2022-07-30T05:59:28.533Z,16.55
2022-07-30T06:02:08.762Z,16.52
2022-07-30T06:05:02.300Z,16.52
2022-07-30T06:07:28.798Z,16.54
2022-07-30T06:09:59.518Z,16.57
2022-07-30T06:12:27.829Z,16.55
2022-07-30T06:14:54.334Z,16.52
2022-07-30T06:17:26.069Z,16.55
2022-07-30T06:20:18.036Z,16.52
2022-07-30T06:23:03.480Z,16.52
2022-07-30T06:25:42.320Z,16.52
2022-07-30T06:28:27.864Z,16.54
2022-07-30T06:30:56.567Z,16.52
2022-07-30T06:33:25.688Z,16.51
2022-07-30T06:35:52.895Z,16.50
2022-07-30T06:38:22.970Z,16.51
2022-07-30T06:41:04.816Z,16.51
2022-07-30T06:43:46.695Z,16.49
2022-07-30T06:46:30.169Z,16.50
2022-07-30T06:48:57.479Z,16.50
2022-07-30T06:51:24.560Z,16.49
2022-07-30T06:53:50.816Z,16.52
2022-07-30T06:56:37.038Z,16.54
2022-07-30T06:59:05.589Z,16.55
2022-07-30T07:02:07.618Z,16.51
2022-07-30T07:04:47.518Z,16.52
2022-07-30T07:07:14.250Z,16.51
2022-07-30T07:09:44.746Z,16.52
2022-07-30T07:12:29.481Z,16.51
2022-07-30T07:14:55.940Z,16.50
2022-07-30T07:17:22.157Z,16.52
2022-07-30T07:20:00.371Z,16.50
2022-07-30T07:22:31.109Z,16.51
2022-07-30T07:24:57.419Z,16.52
2022-07-30T07:27:27.613Z,16.55
2022-07-30T07:30:01.283Z,16.51
2022-07-30T07:32:31.552Z,16.52
2022-07-30T07:34:57.743Z,16.56
2022-07-30T07:37:24.055Z,16.56
2022-07-30T07:39:50.375Z,16.57
2022-07-30T07:42:16.894Z,16.54
2022-07-30T07:44:43.928Z,16.55
2022-07-30T07:47:10.522Z,16.57
2022-07-30T07:49:43.530Z,16.56
2022-07-30T07:52:10.172Z,16.56
2022-07-30T07:54:37.539Z,16.57
2022-07-30T07:57:07.383Z,16.60
2022-07-30T07:59:40.073Z,16.63
2022-07-30T08:02:10.236Z,16.61
2022-07-30T08:04:46.743Z,16.64
2022-07-30T08:07:33.326Z,16.64
2022-07-30T08:10:15.415Z,16.65
2022-07-30T08:13:02.886Z,16.67
2022-07-30T08:15:47.765Z,16.72
2022-07-30T08:18:43.667Z,16.72
2022-07-30T08:21:17.952Z,16.71
2022-07-30T08:23:44.380Z,16.70
2022-07-30T08:26:11.256Z,16.69
2022-07-30T08:28:37.622Z,16.67
2022-07-30T08:31:06.493Z,16.66
2022-07-30T08:33:32.827Z,16.70
2022-07-30T08:36:04.336Z,16.70
2022-07-30T08:38:35.692Z,16.69
2022-07-30T08:41:01.915Z,16.67
2022-07-30T08:43:28.808Z,16.69
2022-07-30T08:45:57.936Z,16.70
2022-07-30T08:48:47.680Z,16.70
2022-07-30T08:51:17.489Z,16.70
2022-07-30T08:54:06.885Z,16.71
2022-07-30T08:56:33.921Z,16.72
2022-07-30T08:59:01.126Z,16.71
2022-07-30T09:01:27.545Z,16.70
2022-07-30T09:03:56.228Z,16.71
2022-07-30T09:06:24.788Z,16.73
2022-07-30T09:08:51.034Z,16.72
2022-07-30T09:11:17.452Z,16.70
2022-07-30T09:13:44.170Z,16.75
2022-07-30T09:16:39.325Z,16.77
2022-07-30T09:19:23.841Z,16.77
2022-07-30T09:22:01.329Z,16.78
2022-07-30T09:25:03.306Z,16.79
2022-07-30T09:27:49.719Z,16.79
2022-07-30T09:30:51.514Z,16.82
2022-07-30T09:33:40.297Z,16.82
2022-07-30T09:36:31.245Z,16.84
2022-07-30T09:39:30.991Z,16.85
2022-07-30T09:42:26.366Z,16.89
2022-07-30T09:45:12.881Z,16.91
2022-07-30T09:47:47.665Z,16.93
2022-07-30T09:50:29.248Z,16.95
2022-07-30T09:53:09.229Z,16.94
2022-07-30T09:55:42.173Z,16.96
2022-07-30T09:58:12.868Z,16.99
2022-07-30T10:00:44.727Z,17.04
2022-07-30T10:03:34.124Z,17.05
2022-07-30T10:06:33.936Z,17.08
2022-07-30T10:09:15.437Z,17.10
2022-07-30T10:11:47.760Z,17.11
2022-07-30T10:14:14.525Z,17.14
2022-07-30T10:16:40.999Z,17.17
2022-07-30T10:19:07.797Z,17.19
2022-07-30T10:21:57.369Z,17.21
2022-07-30T10:24:58.037Z,17.20
2022-07-30T10:27:45.425Z,17.25
2022-07-30T10:30:28.284Z,17.25
2022-07-30T10:32:57.964Z,17.28
2022-07-30T10:35:34.801Z,17.29
2022-07-30T10:38:09.290Z,17.31
2022-07-30T10:41:00.945Z,17.33
2022-07-30T10:44:12.579Z,17.32
2022-07-30T10:47:07.706Z,17.35
2022-07-30T10:49:41.134Z,17.34
2022-07-30T10:52:08.513Z,17.35
2022-07-30T10:54:39.657Z,17.36
2022-07-30T10:57:14.989Z,17.35
2022-07-30T10:59:55.594Z,17.36
2022-07-30T11:02:28.665Z,17.39
2022-07-30T11:05:17.483Z,17.43
2022-07-30T11:07:47.248Z,17.43
2022-07-30T11:10:38.402Z,17.46
2022-07-30T11:13:07.187Z,17.47
2022-07-30T11:15:59.071Z,17.48
2022-07-30T11:18:26.743Z,17.47
2022-07-30T11:21:15.566Z,17.48
2022-07-30T11:23:43.004Z,17.47
2022-07-30T11:26:14.157Z,17.50
2022-07-30T11:28:45.480Z,17.51
2022-07-30T11:31:56.231Z,17.56
2022-07-30T11:34:26.146Z,17.62
2022-07-30T11:37:21.554Z,17.66
2022-07-30T11:39:55.025Z,17.72
2022-07-30T11:42:41.921Z,17.78
2022-07-30T11:45:17.605Z,17.81
2022-07-30T11:47:54.564Z,17.84
2022-07-30T11:50:31.292Z,17.87
2022-07-30T11:53:08.424Z,17.91
2022-07-30T11:55:55.495Z,17.94
2022-07-30T11:58:39.522Z,17.96
2022-07-30T12:01:12.541Z,17.99
2022-07-30T12:03:43.544Z,18.05
2022-07-30T12:06:17.306Z,18.09
2022-07-30T12:08:49.176Z,18.14
2022-07-30T12:11:15.951Z,18.18
2022-07-30T12:13:45.671Z,18.20
2022-07-30T12:16:16.734Z,18.19
2022-07-30T12:18:43.866Z,18.22
2022-07-30T12:21:17.065Z,18.29
2022-07-30T12:23:57.346Z,18.33
2022-07-30T12:26:26.647Z,18.27
2022-07-30T12:28:54.392Z,18.24
2022-07-30T12:31:20.936Z,18.22
2022-07-30T12:33:47.300Z,18.22
2022-07-30T12:36:30.941Z,18.27
2022-07-30T12:38:58.152Z,18.29
2022-07-30T12:41:47.567Z,18.33
2022-07-30T12:44:35.590Z,18.30
2022-07-30T12:47:04.845Z,18.30
2022-07-30T12:49:39.198Z,18.33
2022-07-30T12:52:27.857Z,18.33
2022-07-30T12:55:08.278Z,18.30
2022-07-30T12:57:57.370Z,18.29
2022-07-30T13:00:26.511Z,18.26
2022-07-30T13:02:53.210Z,18.25
2022-07-30T13:05:19.775Z,18.22
2022-07-30T13:08:12.020Z,18.22
2022-07-30T13:10:38.563Z,18.21
2022-07-30T13:13:04.873Z,18.20
2022-07-30T13:15:31.208Z,18.18
2022-07-30T13:17:57.356Z,18.17
2022-07-30T13:20:23.646Z,18.17
2022-07-30T13:22:49.848Z,18.15
2022-07-30T13:25:16.051Z,18.17
2022-07-30T13:27:42.249Z,18.18
2022-07-30T13:30:09.696Z,18.20
2022-07-30T13:32:36.014Z,18.21
2022-07-30T13:35:02.541Z,18.21
2022-07-30T13:37:37.892Z,18.23
2022-07-30T13:40:06.295Z,18.23
2022-07-30T13:42:32.932Z,18.25
2022-07-30T13:44:59.229Z,18.26
2022-07-30T13:47:25.400Z,18.25
2022-07-30T13:49:51.735Z,18.25
2022-07-30T13:52:18.166Z,18.23
2022-07-30T13:54:44.572Z,18.23
2022-07-30T13:57:11.248Z,18.23
2022-07-30T13:59:37.503Z,18.21
2022-07-30T14:02:04.291Z,18.21
2022-07-30T14:04:30.594Z,18.21
2022-07-30T14:06:56.837Z,18.23
2022-07-30T14:09:23.167Z,18.25
2022-07-30T14:11:49.369Z,18.25
2022-07-30T14:14:15.614Z,18.25
2022-07-30T14:16:45.437Z,18.28
2022-07-30T14:19:23.370Z,18.32
2022-07-30T14:21:52.494Z,18.33
2022-07-30T14:24:19.369Z,18.35
2022-07-30T14:26:45.632Z,18.36
2022-07-30T14:29:11.869Z,18.35
2022-07-30T14:31:38.135Z,18.37
2022-07-30T14:34:04.700Z,18.37
2022-07-30T14:36:31.784Z,18.38
2022-07-30T14:38:59.461Z,18.38
2022-07-30T14:41:26.255Z,18.38
2022-07-30T14:43:52.590Z,18.40
2022-07-30T14:46:19.121Z,18.41
2022-07-30T14:48:45.394Z,18.43
2022-07-30T14:51:16.856Z,18.43
2022-07-30T14:53:47.391Z,18.42
2022-07-30T14:56:13.691Z,18.43
2022-07-30T14:58:39.930Z,18.43
2022-07-30T15:01:15.872Z,18.44
2022-07-30T15:03:44.418Z,18.44
2022-07-30T15:06:12.100Z,18.44
2022-07-30T15:08:38.547Z,18.44
2022-07-30T15:11:06.125Z,18.46
2022-07-30T15:13:34.732Z,18.44
2022-07-30T15:16:02.766Z,18.46
2022-07-30T15:18:29.042Z,18.46
2022-07-30T15:20:56.075Z,18.43
2022-07-30T15:23:22.391Z,18.43
2022-07-30T15:25:48.819Z,18.43
2022-07-30T15:28:15.321Z,18.42
2022-07-30T15:30:41.583Z,18.44
2022-07-30T15:33:07.820Z,18.43
2022-07-30T15:35:34.915Z,18.46
2022-07-30T15:38:01.373Z,18.46
2022-07-30T15:40:27.625Z,18.44
2022-07-30T15:42:53.952Z,18.43
2022-07-30T15:45:22.798Z,18.47
2022-07-30T15:47:49.061Z,18.43
2022-07-30T15:50:16.607Z,18.40
2022-07-30T15:52:43.699Z,18.38
2022-07-30T15:55:10.415Z,18.35
2022-07-30T15:57:36.803Z,18.33
2022-07-30T16:00:06.847Z,18.35
2022-07-30T16:02:39.004Z,18.35
2022-07-30T16:05:07.739Z,18.33
2022-07-30T16:07:36.844Z,18.32
2022-07-30T16:10:04.315Z,18.36
2022-07-30T16:12:30.580Z,18.35
2022-07-30T16:14:56.832Z,18.36
2022-07-30T16:17:23.083Z,18.36
2022-07-30T16:19:49.256Z,18.33
2022-07-30T16:22:23.989Z,18.33
2022-07-30T16:24:51.177Z,18.32
2022-07-30T16:27:17.823Z,18.33
2022-07-30T16:29:44.280Z,18.33
2022-07-30T16:32:10.579Z,18.34
2022-07-30T16:34:36.940Z,18.36
2022-07-30T16:37:04.153Z,18.34
2022-07-30T16:39:31.171Z,18.33
2022-07-30T16:41:57.464Z,18.29
2022-07-30T16:44:26.244Z,18.26
2022-07-30T16:46:52.480Z,18.30
2022-07-30T16:49:18.708Z,18.28
2022-07-30T16:51:44.960Z,18.28
2022-07-30T16:54:11.321Z,18.26
2022-07-30T16:56:37.476Z,18.22
2022-07-30T16:59:03.850Z,18.25
2022-07-30T17:01:31.442Z,18.22
2022-07-30T17:03:59.048Z,18.23
2022-07-30T17:06:25.760Z,18.25
2022-07-30T17:08:51.997Z,18.25
2022-07-30T17:11:45.952Z,18.21
2022-07-30T17:14:05.119Z,18.19
2022-07-30T17:16:31.954Z,18.17
2022-07-30T17:18:58.151Z,18.18
2022-07-30T17:21:24.520Z,18.15
2022-07-30T17:23:50.821Z,18.10
2022-07-30T17:26:17.041Z,18.10
2022-07-30T17:28:43.248Z,18.08
2022-07-30T17:31:09.395Z,18.09
2022-07-30T17:33:35.763Z,18.08
2022-07-30T17:36:01.972Z,18.08
2022-07-30T17:38:28.233Z,18.07
2022-07-30T17:40:54.489Z,18.11
2022-07-30T17:43:20.820Z,18.10
2022-07-30T17:45:46.986Z,18.09
2022-07-30T17:48:13.187Z,18.10
2022-07-30T17:50:39.412Z,18.10
2022-07-30T17:53:05.714Z,18.10
2022-07-30T17:55:34.248Z,18.09
2022-07-30T17:58:02.116Z,18.09
2022-07-30T18:00:28.337Z,18.11
2022-07-30T18:02:54.591Z,18.09
2022-07-30T18:05:20.839Z,18.08
2022-07-30T18:07:47.107Z,18.09
2022-07-30T18:10:13.386Z,18.11
2022-07-30T18:12:49.087Z,18.12
2022-07-30T18:15:17.394Z,18.15
2022-07-30T18:17:43.628Z,18.19
2022-07-30T18:20:10.524Z,18.18
2022-07-30T18:22:37.010Z,18.17
2022-07-30T18:25:04.312Z,18.18
2022-07-30T18:27:34.229Z,18.17
2022-07-30T18:30:00.469Z,18.15
2022-07-30T18:32:26.690Z,18.14
2022-07-30T18:34:52.923Z,18.14
2022-07-30T18:37:19.316Z,18.12
2022-07-30T18:39:45.537Z,18.14
2022-07-30T18:42:11.801Z,18.12
2022-07-30T18:44:37.914Z,18.07
2022-07-30T18:47:04.339Z,18.06
2022-07-30T18:49:38.233Z,18.04
2022-07-30T18:52:06.425Z,18.05
2022-07-30T18:54:32.927Z,18.04
2022-07-30T18:56:59.139Z,18.04
2022-07-30T18:59:25.432Z,18.05
2022-07-30T19:01:51.753Z,18.03
2022-07-30T19:04:17.991Z,18.02
2022-07-30T19:06:44.336Z,17.93
2022-07-30T19:09:17.301Z,17.82
2022-07-30T19:11:45.519Z,17.75
2022-07-30T19:14:12.561Z,17.76
2022-07-30T19:16:38.827Z,17.70
2022-07-30T19:19:05.193Z,17.72
2022-07-30T19:21:31.467Z,17.69
2022-07-30T19:23:57.668Z,17.66
2022-07-30T19:26:24.467Z,17.61
2022-07-30T19:28:50.721Z,17.56
2022-07-30T19:31:17.282Z,17.55
2022-07-30T19:33:43.593Z,17.55
2022-07-30T19:36:10.247Z,17.51
2022-07-30T19:38:39.217Z,17.45
2022-07-30T19:41:06.480Z,17.41
2022-07-30T19:43:33.670Z,17.40
2022-07-30T19:46:00.037Z,17.37
2022-07-30T19:48:29.293Z,17.38
2022-07-30T19:50:58.367Z,17.39
2022-07-30T19:53:25.986Z,17.33
2022-07-30T19:55:52.485Z,17.31
2022-07-30T19:58:18.703Z,17.31
2022-07-30T20:00:49.208Z,17.34
2022-07-30T20:03:25.433Z,17.34
2022-07-30T20:05:57.462Z,17.31
2022-07-30T20:08:28.233Z,17.29
2022-07-30T20:10:57.942Z,17.35
2022-07-30T20:13:45.354Z,17.34
2022-07-30T20:16:13.392Z,17.33
2022-07-30T20:18:40.312Z,17.29
2022-07-30T20:21:11.324Z,17.28
2022-07-30T20:23:41.310Z,17.23
2022-07-30T20:26:12.484Z,17.16
2022-07-30T20:28:43.537Z,17.14
2022-07-30T20:31:12.489Z,17.09
2022-07-30T20:33:39.407Z,17.10
2022-07-30T20:36:09.611Z,17.09
2022-07-30T20:38:38.937Z,17.08
2022-07-30T20:41:05.588Z,17.04
2022-07-30T20:43:51.700Z,17.03
2022-07-30T20:46:21.090Z,17.02
2022-07-30T20:48:51.615Z,17.06
2022-07-30T20:51:18.102Z,17.14
2022-07-30T20:53:45.177Z,17.17
2022-07-30T20:56:12.214Z,17.01
2022-07-30T20:58:40.081Z,16.98
2022-07-30T21:01:07.134Z,17.03
2022-07-30T21:03:33.663Z,17.08
2022-07-30T21:05:59.958Z,17.10
2022-07-30T21:08:26.630Z,17.08
2022-07-30T21:10:53.249Z,17.00
2022-07-30T21:13:22.546Z,16.96
2022-07-30T21:16:02.402Z,16.89
2022-07-30T21:18:30.973Z,16.91
2022-07-30T21:20:57.341Z,16.92
2022-07-30T21:23:23.708Z,16.93
2022-07-30T21:26:00.908Z,16.94
2022-07-30T21:28:35.168Z,16.94
2022-07-30T21:31:03.707Z,16.93
2022-07-30T21:33:31.060Z,16.91
2022-07-30T21:35:58.975Z,16.88
2022-07-30T21:38:28.601Z,16.86
2022-07-30T21:40:57.317Z,16.85
2022-07-30T21:43:29.871Z,16.86
2022-07-30T21:45:57.672Z,16.85
2022-07-30T21:48:24.679Z,16.88
2022-07-30T21:50:52.365Z,16.89
2022-07-30T21:53:29.917Z,16.92
2022-07-30T21:56:05.499Z,16.91
2022-07-30T21:58:31.934Z,16.93
2022-07-30T22:01:17.768Z,16.89
2022-07-30T22:04:04.250Z,16.91
2022-07-30T22:06:40.266Z,16.86
2022-07-30T22:09:18.823Z,16.85
2022-07-30T22:12:01.121Z,16.80
2022-07-30T22:14:28.584Z,16.74
2022-07-30T22:16:55.006Z,16.73
2022-07-30T22:19:21.168Z,16.76
2022-07-30T22:21:48.318Z,16.72
2022-07-30T22:24:29.369Z,16.70
2022-07-30T22:27:00.973Z,16.65
2022-07-30T22:29:34.454Z,16.67
2022-07-30T22:32:03.253Z,16.71
2022-07-30T22:34:30.174Z,16.70
2022-07-30T22:36:57.488Z,16.67
2022-07-30T22:39:23.982Z,16.67
2022-07-30T22:41:58.727Z,16.70
2022-07-30T22:44:27.157Z,16.67
2022-07-30T22:46:56.283Z,16.70
2022-07-30T22:49:26.404Z,16.71
2022-07-30T22:52:19.744Z,16.66
2022-07-30T22:54:50.799Z,16.67
2022-07-30T22:57:17.418Z,16.61
2022-07-30T23:00:00.338Z,16.64
2022-07-30T23:02:28.173Z,16.67
2022-07-30T23:04:54.478Z,16.66
2022-07-30T23:07:22.691Z,16.60
2022-07-30T23:09:51.932Z,16.60
2022-07-30T23:12:20.194Z,16.63
2022-07-30T23:14:47.280Z,16.63
2022-07-30T23:17:13.764Z,16.61
2022-07-30T23:19:40.006Z,16.61
2022-07-30T23:22:06.509Z,16.64
2022-07-30T23:24:33.146Z,16.62
2022-07-30T23:26:59.459Z,16.61
2022-07-30T23:29:25.776Z,16.62
2022-07-30T23:31:52.016Z,16.64
2022-07-30T23:34:18.217Z,16.69
2022-07-30T23:36:44.484Z,16.69
2022-07-30T23:39:10.944Z,16.67
2022-07-30T23:41:37.744Z,16.66
2022-07-30T23:44:04.069Z,16.62
2022-07-30T23:46:30.257Z,16.56
2022-07-30T23:48:56.574Z,16.59
2022-07-30T23:51:23.011Z,16.60
2022-07-30T23:53:49.309Z,16.54
2022-07-30T23:56:17.033Z,16.55
2022-07-30T23:58:45.246Z,16.58
